Time;durP1;ratioP1;P1;durP2;ratioP2;P2;SDS_P1;SDS_P2;PMS_P1;PMS_P2;Temp;Humidity;BMP_temperature;BMP_pressure;BME280_temperature;BME280_humidity;BME280_pressure;Samples;Min_cycle;Max_cycle;Signal;HPM_P1;HPM_P2
2022/07/29 00:00:59;;;;;;;2.57;2.37;;;25.90;35.50;;;;;;5080182;27;20434;-87
2022/07/29 00:03:26;;;;;;;3.00;2.70;;;25.80;35.50;;;;;;5103841;27;20544;-88
2022/07/29 00:12:02;;;;;;;6.53;2.60;;;25.40;36.40;;;;;;5124388;27;20445;-87
2022/07/29 00:14:43;;;;;;;2.20;2.00;;;25.00;35.60;;;;;;5139659;27;20529;-87
2022/07/29 00:17:11;;;;;;;3.70;2.70;;;25.00;36.20;;;;;;5118170;27;20505;-88
2022/07/29 00:19:38;;;;;;;5.03;2.50;;;25.30;35.80;;;;;;5099112;27;20840;-86
2022/07/29 00:22:05;;;;;;;7.87;2.73;;;25.50;35.60;;;;;;5104878;27;20582;-89
2022/07/29 00:24:32;;;;;;;6.90;2.70;;;25.60;35.60;;;;;;5085268;27;20477;-89
2022/07/29 00:26:59;;;;;;;4.53;2.57;;;25.60;34.90;;;;;;5127392;27;20531;-89
2022/07/29 00:29:26;;;;;;;3.00;2.60;;;25.60;35.40;;;;;;5086065;27;20454;-88
2022/07/29 00:31:53;;;;;;;6.93;2.67;;;25.70;35.10;;;;;;5107465;27;20787;-88
2022/07/29 00:38:28;;;;;;;2.70;2.50;;;25.70;34.70;;;;;;5107155;27;20512;-88
2022/07/29 00:40:55;;;;;;;5.60;3.10;;;25.70;35.10;;;;;;5112842;27;20540;-87
2022/07/29 00:43:22;;;;;;;3.07;2.80;;;25.70;35.30;;;;;;5142039;27;20479;-89
2022/07/29 00:45:49;;;;;;;3.20;2.37;;;25.80;35.10;;;;;;5120680;27;20463;-88
2022/07/29 00:48:16;;;;;;;2.63;2.43;;;25.80;35.20;;;;;;5095366;27;20468;-90
2022/07/29 00:50:43;;;;;;;4.60;2.53;;;25.90;35.00;;;;;;5097139;27;20437;-88
2022/07/29 00:53:13;;;;;;;3.30;2.80;;;25.80;34.80;;;;;;5096368;27;20436;-90
2022/07/29 00:55:41;;;;;;;2.87;2.67;;;25.60;34.90;;;;;;5103145;27;20869;-88
2022/07/29 00:58:33;;;;;;;5.33;3.10;;;25.40;34.90;;;;;;5122789;27;20437;-87
2022/07/29 01:01:01;;;;;;;4.40;2.37;;;24.60;35.90;;;;;;5123474;27;20841;-88
2022/07/29 01:03:27;;;;;;;5.87;2.50;;;24.30;36.10;;;;;;5105157;27;20855;-90
2022/07/29 01:05:55;;;;;;;2.80;2.60;;;24.40;36.30;;;;;;5090573;27;20540;-87
2022/07/29 01:08:23;;;;;;;6.50;2.73;;;24.50;36.10;;;;;;5123564;27;20456;-88
2022/07/29 01:10:53;;;;;;;8.23;3.30;;;24.10;36.30;;;;;;5105481;27;20537;-88
2022/07/29 01:13:20;;;;;;;4.00;3.00;;;24.10;36.30;;;;;;5144593;27;20460;-89
2022/07/29 01:15:55;;;;;;;3.07;2.77;;;24.20;36.30;;;;;;5108970;27;20472;-89
2022/07/29 01:18:26;;;;;;;3.43;2.60;;;24.50;36.40;;;;;;5102891;27;20962;-89
2022/07/29 01:21:13;;;;;;;4.20;2.70;;;24.80;36.10;;;;;;5109510;27;20441;-87
2022/07/29 01:23:53;;;;;;;3.30;3.00;;;25.00;36.10;;;;;;5125624;27;20494;-89
2022/07/29 01:26:39;;;;;;;4.50;2.93;;;25.20;35.70;;;;;;5100136;27;20497;-88
2022/07/29 01:37:05;;;;;;;3.10;2.57;;;25.40;34.30;;;;;;5127049;27;20539;-88
2022/07/29 01:40:23;;;;;;;5.03;3.10;;;25.50;34.90;;;;;;5124190;27;20448;-89
2022/07/29 01:42:55;;;;;;;6.33;3.00;;;25.30;34.50;;;;;;5092950;27;20448;-87
2022/07/29 01:45:27;;;;;;;3.47;3.10;;;25.30;35.20;;;;;;5107143;27;20500;-87
2022/07/29 01:48:01;;;;;;;5.70;2.87;;;25.30;35.20;;;;;;5131251;27;21167;-87
2022/07/29 01:50:35;;;;;;;7.07;3.60;;;25.30;35.60;;;;;;5107527;27;20450;-87
2022/07/29 01:53:07;;;;;;;7.63;3.13;;;25.40;35.90;;;;;;5127126;27;20444;-88
2022/07/29 01:55:39;;;;;;;3.40;3.10;;;25.40;35.70;;;;;;5081500;27;20436;-88
2022/07/29 01:58:07;;;;;;;6.93;3.67;;;25.40;35.70;;;;;;5091753;27;20437;-88
2022/07/29 02:00:36;;;;;;;3.30;3.00;;;25.40;35.50;;;;;;5123042;27;20438;-88
2022/07/29 02:07:14;;;;;;;3.50;2.97;;;25.30;35.40;;;;;;5128191;27;20493;-90
2022/07/29 02:09:44;;;;;;;3.00;2.73;;;25.30;35.90;;;;;;5093991;27;20444;-88
2022/07/29 02:12:12;;;;;;;4.43;2.70;;;25.20;35.60;;;;;;5093548;27;20563;-88
2022/07/29 02:18:25;;;;;;;8.80;3.60;;;25.20;36.10;;;;;;5142743;27;20490;-89
2022/07/29 02:20:56;;;;;;;5.00;3.40;;;25.10;35.70;;;;;;5130396;27;20451;-87
2022/07/29 02:23:25;;;;;;;6.23;4.43;;;24.70;35.50;;;;;;5127228;27;20453;-89
2022/07/29 02:25:56;;;;;;;5.77;3.37;;;24.70;36.40;;;;;;5098566;27;20449;-88
2022/07/29 02:28:25;;;;;;;3.17;2.87;;;24.70;36.60;;;;;;5140860;27;20464;-88
2022/07/29 02:30:54;;;;;;;4.63;3.80;;;24.80;36.50;;;;;;5109288;27;20944;-89
2022/07/29 02:37:28;;;;;;;3.73;2.70;;;24.90;36.30;;;;;;5106963;27;20471;-88
2022/07/29 02:39:56;;;;;;;3.40;3.10;;;24.90;36.60;;;;;;5100360;27;20465;-88
2022/07/29 02:42:27;;;;;;;4.80;3.10;;;24.90;36.60;;;;;;5123793;27;20477;-88
2022/07/29 02:44:54;;;;;;;4.50;3.17;;;24.90;36.40;;;;;;5125652;27;20528;-88
2022/07/29 02:47:25;;;;;;;8.10;3.50;;;24.80;35.80;;;;;;5108358;27;20437;-89
2022/07/29 02:49:57;;;;;;;5.80;3.90;;;24.70;36.20;;;;;;5097106;27;20536;-88
2022/07/29 02:52:28;;;;;;;4.43;3.37;;;24.50;36.30;;;;;;5097093;27;20963;-88
2022/07/29 02:54:59;;;;;;;5.40;4.10;;;24.10;36.90;;;;;;5094967;27;20465;-89
2022/07/29 02:57:34;;;;;;;5.13;3.70;;;24.00;37.10;;;;;;5106404;27;20476;-88
2022/07/29 03:00:05;;;;;;;4.70;3.27;;;24.20;37.60;;;;;;5105939;27;20496;-90
2022/07/29 03:02:37;;;;;;;5.07;3.30;;;24.30;37.80;;;;;;5087498;27;21101;-87
2022/07/29 03:09:14;;;;;;;4.10;3.60;;;24.60;38.10;;;;;;5106185;27;20419;-89
2022/07/29 03:11:43;;;;;;;6.37;3.40;;;24.60;39.30;;;;;;5106433;27;20459;-88
2022/07/29 03:18:18;;;;;;;4.83;4.00;;;24.70;40.10;;;;;;5140779;27;20448;-88
2022/07/29 03:20:46;;;;;;;4.70;3.70;;;24.70;39.80;;;;;;5123545;27;20468;-87
2022/07/29 03:23:18;;;;;;;4.03;3.23;;;24.40;39.20;;;;;;5124785;27;20452;-88
2022/07/29 03:25:46;;;;;;;5.20;3.70;;;24.40;39.10;;;;;;5103168;27;20823;-87
2022/07/29 03:28:13;;;;;;;4.63;2.90;;;24.40;38.80;;;;;;5123403;27;20438;-88
2022/07/29 03:30:39;;;;;;;3.70;2.63;;;24.50;38.70;;;;;;5145143;27;20437;-87
2022/07/29 03:41:25;;;;;;;4.30;3.00;;;24.50;38.50;;;;;;5123642;27;21016;-87
2022/07/29 03:43:54;;;;;;;4.63;3.47;;;24.50;38.60;;;;;;5120171;27;20564;-87
2022/07/29 03:46:23;;;;;;;4.43;2.73;;;24.50;39.00;;;;;;5125785;27;20441;-91
2022/07/29 03:48:53;;;;;;;3.87;3.13;;;24.60;39.30;;;;;;5106837;27;20437;-86
2022/07/29 03:51:21;;;;;;;5.10;3.43;;;24.60;39.60;;;;;;5120672;27;20496;-87
2022/07/29 03:58:21;;;;;;;12.40;2.90;;;24.70;40.20;;;;;;5140675;27;20460;-89
2022/07/29 04:00:49;;;;;;;7.13;3.70;;;24.50;41.60;;;;;;5097372;27;20464;-88
2022/07/29 04:03:16;;;;;;;3.60;3.30;;;24.50;42.20;;;;;;5086351;27;20441;-89
2022/07/29 04:05:43;;;;;;;4.67;3.80;;;24.60;43.10;;;;;;5120408;27;20540;-89
2022/07/29 04:08:10;;;;;;;7.17;3.77;;;24.60;42.30;;;;;;5092905;27;20452;-88
2022/07/29 04:10:38;;;;;;;3.63;3.33;;;24.60;42.60;;;;;;5106648;27;20460;-89
2022/07/29 04:13:05;;;;;;;6.87;3.53;;;24.60;43.50;;;;;;5124678;27;20460;-89
2022/07/29 04:15:33;;;;;;;4.50;3.90;;;24.50;41.20;;;;;;5138966;27;20537;-88
2022/07/29 04:18:00;;;;;;;5.73;3.50;;;24.50;41.30;;;;;;5119921;27;20472;-90
2022/07/29 04:20:29;;;;;;;7.37;3.17;;;24.50;40.80;;;;;;5123032;27;21214;-89
2022/07/29 04:22:56;;;;;;;4.27;3.23;;;24.50;39.80;;;;;;5124966;27;20522;-89
2022/07/29 04:25:23;;;;;;;3.73;2.87;;;24.50;39.30;;;;;;5140925;27;20468;-91
2022/07/29 04:28:02;;;;;;;3.73;3.43;;;24.50;38.80;;;;;;5137292;27;20444;-90
2022/07/29 04:30:30;;;;;;;4.87;3.30;;;24.50;38.50;;;;;;5094027;27;20452;-90
2022/07/29 04:32:58;;;;;;;4.30;3.17;;;24.40;38.80;;;;;;5091272;27;20448;-90
2022/07/29 04:35:25;;;;;;;4.90;3.00;;;24.40;38.00;;;;;;5119654;27;20838;-90
2022/07/29 04:37:52;;;;;;;4.00;2.90;;;24.40;37.60;;;;;;5136264;27;20460;-89
2022/07/29 04:40:20;;;;;;;3.63;3.00;;;24.30;36.90;;;;;;5113773;27;20483;-88
2022/07/29 04:42:47;;;;;;;3.77;3.07;;;24.30;38.00;;;;;;5124745;27;20543;-88
2022/07/29 04:45:14;;;;;;;3.23;2.93;;;24.30;37.80;;;;;;5086932;27;20465;-90
2022/07/29 04:47:41;;;;;;;3.57;3.27;;;24.30;37.30;;;;;;5119652;27;20463;-89
2022/07/29 04:50:35;;;;;;;3.93;3.50;;;24.30;37.90;;;;;;5104749;27;20617;-88
2022/07/29 04:53:02;;;;;;;4.27;3.20;;;24.30;38.60;;;;;;5147190;27;20448;-89
2022/07/29 04:55:29;;;;;;;3.43;3.13;;;24.30;38.60;;;;;;5090044;27;20821;-88
2022/07/29 04:57:56;;;;;;;4.00;3.50;;;24.30;38.70;;;;;;5095068;27;20465;-90
2022/07/29 05:00:24;;;;;;;5.60;3.03;;;24.30;39.10;;;;;;5087538;27;20448;-90
2022/07/29 05:02:51;;;;;;;5.37;3.70;;;24.30;38.90;;;;;;5120184;27;20452;-89
2022/07/29 05:05:18;;;;;;;5.73;2.83;;;24.30;39.60;;;;;;5106974;27;20483;-88
2022/07/29 05:07:46;;;;;;;4.30;3.40;;;24.40;40.10;;;;;;5122606;27;20441;-90
2022/07/29 05:10:13;;;;;;;4.70;3.27;;;24.40;40.10;;;;;;5104225;27;20445;-88
2022/07/29 05:12:40;;;;;;;4.70;3.17;;;24.40;40.80;;;;;;5138947;27;20821;-89
2022/07/29 05:15:08;;;;;;;3.87;3.47;;;24.50;41.60;;;;;;5141888;27;20486;-88
2022/07/29 05:17:35;;;;;;;8.00;3.90;;;24.50;41.80;;;;;;5123522;27;21015;-88
2022/07/29 05:20:02;;;;;;;5.10;3.70;;;24.50;42.40;;;;;;5120542;27;21096;-90
2022/07/29 05:22:55;;;;;;;4.27;3.63;;;24.50;42.50;;;;;;5113041;27;21197;-89
2022/07/29 05:26:13;;;;;;;6.90;3.60;;;24.50;42.50;;;;;;5101710;27;20468;-88
2022/07/29 05:28:40;;;;;;;6.67;3.70;;;24.50;42.70;;;;;;5101299;27;20533;-88
2022/07/29 05:35:16;;;;;;;3.83;3.37;;;24.50;42.20;;;;;;5141138;27;20816;-89
2022/07/29 05:37:43;;;;;;;9.70;3.90;;;24.50;41.20;;;;;;5090333;27;20468;-88
2022/07/29 05:40:36;;;;;;;5.90;3.93;;;24.50;42.10;;;;;;5105392;27;20828;-89
2022/07/29 05:43:03;;;;;;;4.47;3.57;;;24.50;43.40;;;;;;5123865;27;20445;-89
2022/07/29 05:45:30;;;;;;;5.33;3.87;;;24.60;44.00;;;;;;5097548;27;20457;-89
2022/07/29 05:47:57;;;;;;;8.50;4.00;;;24.70;44.20;;;;;;5107267;27;21121;-89
2022/07/29 05:50:24;;;;;;;4.60;3.30;;;24.70;44.40;;;;;;5119333;27;20441;-88
2022/07/29 05:52:51;;;;;;;3.80;3.50;;;24.70;44.70;;;;;;5123314;27;20528;-88
2022/07/29 06:02:44;;;;;;;4.17;3.77;;;24.10;43.60;;;;;;5100322;27;20511;-89
2022/07/29 06:05:11;;;;;;;3.70;3.40;;;24.20;44.60;;;;;;5124147;27;20480;-88
2022/07/29 06:11:45;;;;;;;6.20;3.27;;;24.70;42.30;;;;;;5138123;27;20424;-88
2022/07/29 06:14:15;;;;;;;5.40;3.57;;;24.70;42.60;;;;;;5122811;27;20483;-89
2022/07/29 06:16:42;;;;;;;8.50;3.33;;;25.00;42.20;;;;;;5138902;27;20618;-90
2022/07/29 06:19:11;;;;;;;7.60;3.23;;;25.20;40.00;;;;;;5105169;27;21407;-89
2022/07/29 06:22:28;;;;;;;11.33;3.50;;;25.40;38.90;;;;;;5082993;27;20441;-90
2022/07/29 06:24:55;;;;;;;4.57;3.57;;;25.30;40.00;;;;;;5137160;27;20476;-88
2022/07/29 06:27:22;;;;;;;5.33;3.40;;;25.10;40.30;;;;;;5122177;27;21083;-88
2022/07/29 06:29:49;;;;;;;5.33;3.03;;;25.20;39.50;;;;;;5115326;27;20541;-90
2022/07/29 06:32:16;;;;;;;6.87;3.60;;;25.10;39.30;;;;;;5120668;27;20457;-90
2022/07/29 06:34:44;;;;;;;3.10;2.80;;;25.20;38.10;;;;;;5138522;27;20654;-90
2022/07/29 06:37:11;;;;;;;6.27;3.13;;;25.10;37.90;;;;;;5075687;27;20441;-91
2022/07/29 06:39:38;;;;;;;11.80;3.60;;;25.20;37.70;;;;;;5118990;27;20815;-89
2022/07/29 06:42:06;;;;;;;9.17;3.50;;;25.50;36.80;;;;;;5122770;27;20474;-91
2022/07/29 06:44:34;;;;;;;6.27;2.97;;;25.60;37.30;;;;;;5140526;27;20473;-89
2022/07/29 06:47:01;;;;;;;12.10;3.47;;;25.70;36.60;;;;;;5126484;27;20973;-88
2022/07/29 06:49:28;;;;;;;5.87;4.53;;;25.90;36.50;;;;;;5121316;27;20456;-87
2022/07/29 06:51:56;;;;;;;8.00;3.53;;;25.90;37.40;;;;;;5106299;27;20444;-88
2022/07/29 06:54:23;;;;;;;6.40;3.00;;;26.10;37.10;;;;;;5140251;27;20468;-88
2022/07/29 07:01:01;;;;;;;6.40;3.30;;;26.10;36.90;;;;;;5102608;27;20474;-90
2022/07/29 07:03:28;;;;;;;5.60;3.23;;;26.20;37.30;;;;;;5122896;27;20449;-87
2022/07/29 07:05:56;;;;;;;9.90;3.57;;;26.50;37.40;;;;;;5139951;27;20465;-89
2022/07/29 07:08:25;;;;;;;9.27;3.63;;;26.60;36.20;;;;;;5142836;27;20441;-87
2022/07/29 07:10:52;;;;;;;10.70;3.00;;;26.60;36.00;;;;;;5137936;27;20437;-87
2022/07/29 07:13:19;;;;;;;5.40;3.13;;;26.80;36.00;;;;;;5124092;27;20440;-88
2022/07/29 07:15:48;;;;;;;4.43;2.93;;;26.70;34.50;;;;;;5119197;27;20493;-87
2022/07/29 07:18:16;;;;;;;5.63;3.17;;;26.70;35.60;;;;;;5124937;27;20465;-89
2022/07/29 07:20:43;;;;;;;5.40;2.83;;;26.70;35.70;;;;;;5103050;27;20439;-89
2022/07/29 07:27:17;;;;;;;3.83;2.93;;;26.80;36.40;;;;;;5123662;27;20451;-88
2022/07/29 07:30:35;;;;;;;7.17;3.80;;;26.80;35.50;;;;;;5098015;27;21221;-87
2022/07/29 07:37:10;;;;;;;3.10;2.60;;;27.00;34.30;;;;;;5125719;27;20421;-89
2022/07/29 07:39:37;;;;;;;6.33;3.27;;;27.00;34.60;;;;;;5100578;27;20817;-88
2022/07/29 07:42:04;;;;;;;8.77;3.20;;;27.10;34.80;;;;;;5109167;27;20463;-88
2022/07/29 07:44:32;;;;;;;3.20;2.90;;;27.10;34.50;;;;;;5119727;27;20472;-88
2022/07/29 07:46:59;;;;;;;6.77;3.40;;;27.20;34.60;;;;;;5124907;27;20542;-89
2022/07/29 07:50:18;;;;;;;3.50;2.97;;;27.40;34.80;;;;;;5118771;27;20935;-89
2022/07/29 07:57:43;;;;;;;5.20;2.90;;;27.60;34.70;;;;;;5122437;27;20540;-89
2022/07/29 08:00:12;;;;;;;6.53;3.00;;;27.70;34.70;;;;;;5098694;27;21928;-89
2022/07/29 08:03:05;;;;;;;5.40;3.27;;;27.70;34.50;;;;;;5128508;27;20445;-89
2022/07/29 08:05:32;;;;;;;5.60;2.80;;;27.80;34.90;;;;;;5135369;27;20476;-92
2022/07/29 08:07:59;;;;;;;5.07;3.13;;;27.90;34.70;;;;;;5107218;27;20452;-88
2022/07/29 08:13:11;;;;;;;9.00;2.97;;;28.00;32.90;;;;;;5103786;27;20466;-89
2022/07/29 08:15:42;;;;;;;6.00;2.97;;;28.00;33.20;;;;;;5104528;27;20513;-90
2022/07/29 08:18:35;;;;;;;8.17;3.40;;;28.20;33.00;;;;;;5142590;27;20544;-88
2022/07/29 08:21:01;;;;;;;4.27;2.90;;;28.20;32.40;;;;;;5128459;27;20475;-88
2022/07/29 08:27:04;;;;;;;7.83;3.00;;;28.00;32.10;;;;;;5109163;27;20428;-88
2022/07/29 08:29:31;;;;;;;6.57;3.30;;;27.90;32.50;;;;;;5107436;27;20443;-88
2022/07/29 08:31:59;;;;;;;5.80;3.57;;;28.00;32.80;;;;;;5110030;27;20959;-90
2022/07/29 08:34:26;;;;;;;8.83;3.23;;;28.20;32.40;;;;;;5107877;27;21191;-89
2022/07/29 08:36:53;;;;;;;8.10;3.33;;;28.30;32.00;;;;;;5120530;27;20834;-89
2022/07/29 08:39:20;;;;;;;11.00;4.13;;;28.40;32.50;;;;;;5125828;27;20479;-88
2022/07/29 08:41:48;;;;;;;4.40;3.37;;;28.60;32.20;;;;;;5127723;27;20452;-89
2022/07/29 08:44:19;;;;;;;7.57;3.07;;;28.60;32.40;;;;;;5126842;27;20466;-89
2022/07/29 08:46:46;;;;;;;5.80;3.20;;;28.80;32.30;;;;;;5093560;27;20452;-91
2022/07/29 08:49:14;;;;;;;4.40;3.73;;;29.00;32.70;;;;;;5124972;27;20440;-87
2022/07/29 08:51:42;;;;;;;6.23;3.10;;;29.00;31.80;;;;;;5121392;27;21228;-89
2022/07/29 08:54:34;;;;;;;3.30;2.80;;;29.00;31.90;;;;;;5126841;27;20560;-89
2022/07/29 08:57:02;;;;;;;6.40;3.27;;;29.10;31.80;;;;;;5097060;27;20445;-89
2022/07/29 08:59:33;;;;;;;5.93;3.30;;;29.40;32.00;;;;;;5113795;27;21040;-89
2022/07/29 09:02:01;;;;;;;5.53;3.43;;;29.40;30.60;;;;;;5089461;27;20449;-89
2022/07/29 09:04:35;;;;;;;4.20;2.90;;;29.20;30.80;;;;;;5122782;27;20850;-89
2022/07/29 09:07:05;;;;;;;5.67;3.00;;;29.10;31.10;;;;;;5115789;27;20441;-86
2022/07/29 09:10:24;;;;;;;3.40;2.93;;;29.00;31.70;;;;;;5131425;27;20513;-87
2022/07/29 09:12:52;;;;;;;8.93;3.00;;;29.00;31.70;;;;;;5120710;27;20901;-87
2022/07/29 09:15:19;;;;;;;5.40;2.87;;;29.10;31.70;;;;;;5102875;27;20853;-87
2022/07/29 09:17:48;;;;;;;5.37;3.47;;;29.10;32.70;;;;;;5107371;27;20892;-87
2022/07/29 09:20:22;;;;;;;6.80;2.83;;;29.30;32.50;;;;;;5118169;27;20459;-88
2022/07/29 09:22:49;;;;;;;4.27;3.37;;;29.50;32.40;;;;;;5137850;27;20817;-88
2022/07/29 09:25:32;;;;;;;5.03;3.43;;;29.50;31.20;;;;;;5103033;27;21030;-88
2022/07/29 09:28:07;;;;;;;6.07;3.40;;;29.50;31.90;;;;;;5101120;27;20469;-87
2022/07/29 09:30:59;;;;;;;6.60;3.10;;;29.60;31.30;;;;;;5123808;27;20996;-87
2022/07/29 09:33:35;;;;;;;4.97;3.17;;;29.60;31.60;;;;;;5107082;27;20449;-88
2022/07/29 09:38:59;;;;;;;6.73;3.27;;;29.80;31.50;;;;;;5133528;27;20457;-90
2022/07/29 09:41:27;;;;;;;7.20;3.30;;;29.90;31.00;;;;;;5134000;27;20449;-88
2022/07/29 09:43:56;;;;;;;4.80;3.00;;;30.00;30.80;;;;;;5106422;27;21276;-90
2022/07/29 09:46:24;;;;;;;5.43;4.93;;;30.00;31.50;;;;;;5117482;27;20544;-88
2022/07/29 09:49:07;;;;;;;4.97;3.67;;;30.10;31.00;;;;;;5102894;27;20464;-89
2022/07/29 09:51:36;;;;;;;6.83;3.20;;;30.30;31.50;;;;;;5120983;27;20946;-87
2022/07/29 09:56:56;;;;;;;4.27;3.40;;;30.80;30.50;;;;;;5140214;27;20438;-88
2022/07/29 09:59:26;;;;;;;4.37;3.20;;;31.00;30.90;;;;;;5124044;27;20473;-88
2022/07/29 10:01:53;;;;;;;3.20;2.93;;;31.10;30.10;;;;;;5126208;27;20441;-89
2022/07/29 10:04:20;;;;;;;3.57;3.27;;;31.00;29.60;;;;;;5139149;27;20543;-88
2022/07/29 10:06:59;;;;;;;4.27;3.57;;;30.80;30.30;;;;;;5106694;27;20521;-88
2022/07/29 10:09:26;;;;;;;6.43;3.07;;;30.70;30.00;;;;;;5142753;27;20472;-88
2022/07/29 10:15:03;;;;;;;4.50;3.57;;;30.20;31.20;;;;;;5108121;27;20591;-88
2022/07/29 10:17:30;;;;;;;4.53;3.23;;;30.40;31.20;;;;;;5099682;27;20437;-88
2022/07/29 10:19:57;;;;;;;6.23;2.90;;;30.70;30.80;;;;;;5097915;27;20464;-88
2022/07/29 10:22:26;;;;;;;5.13;3.80;;;31.10;31.10;;;;;;5135588;27;20445;-88
2022/07/29 10:24:53;;;;;;;3.63;3.00;;;31.70;30.50;;;;;;5140070;27;20956;-90
2022/07/29 10:27:20;;;;;;;4.43;2.90;;;32.20;30.40;;;;;;5089427;27;20449;-88
2022/07/29 10:30:16;;;;;;;5.00;3.03;;;32.60;29.30;;;;;;5106944;27;20465;-89
2022/07/29 10:33:07;;;;;;;13.23;3.67;;;32.50;28.50;;;;;;5141324;27;20539;-88
2022/07/29 10:35:49;;;;;;;7.57;3.60;;;32.30;29.00;;;;;;5108204;27;20473;-89
2022/07/29 10:38:38;;;;;;;8.50;3.70;;;32.40;29.10;;;;;;5107248;27;20512;-88
2022/07/29 10:41:28;;;;;;;3.10;2.53;;;32.70;28.90;;;;;;5140756;27;20473;-88
2022/07/29 10:43:58;;;;;;;3.57;3.27;;;33.00;28.70;;;;;;5127049;27;20904;-88
2022/07/29 10:46:26;;;;;;;4.50;3.20;;;33.00;28.30;;;;;;5123170;27;20469;-88
2022/07/29 10:49:10;;;;;;;4.40;3.07;;;33.00;28.80;;;;;;5144733;27;20482;-89
2022/07/29 11:03:53;;;;;;;9.43;3.57;;;33.10;29.10;;;;;;5125810;27;20429;-88
2022/07/29 11:06:19;;;;;;;7.57;3.10;;;33.00;27.80;;;;;;5112740;27;21124;-88
2022/07/29 11:17:03;;;;;;;9.30;2.77;;;32.90;29.50;;;;;;5141359;27;20465;-88
2022/07/29 11:19:30;;;;;;;3.00;2.80;;;33.20;28.80;;;;;;5123564;27;20496;-88
2022/07/29 11:21:58;;;;;;;2.83;2.50;;;33.20;29.00;;;;;;5114937;27;20452;-91
2022/07/29 11:24:28;;;;;;;3.83;3.53;;;33.50;29.60;;;;;;5121779;27;20460;-88
2022/07/29 11:27:15;;;;;;;2.63;2.17;;;33.70;28.10;;;;;;5135977;27;20540;-88
2022/07/29 11:29:53;;;;;;;3.83;2.87;;;33.60;29.00;;;;;;5144058;27;20437;-89
2022/07/29 11:32:23;;;;;;;2.53;2.33;;;33.20;30.00;;;;;;5143924;27;20443;-88
2022/07/29 11:35:14;;;;;;;8.33;3.07;;;33.30;30.00;;;;;;5123272;27;20457;-88
2022/07/29 11:37:41;;;;;;;2.60;2.40;;;34.10;28.80;;;;;;5142656;27;20440;-88
2022/07/29 11:40:18;;;;;;;3.30;2.50;;;33.80;28.60;;;;;;5102088;27;20469;-86
2022/07/29 11:42:47;;;;;;;3.77;2.73;;;33.80;28.70;;;;;;5122954;27;20445;-88
2022/07/29 11:45:17;;;;;;;3.33;3.03;;;33.70;28.90;;;;;;5139582;27;20545;-89
2022/07/29 11:48:34;;;;;;;2.90;2.70;;;33.50;29.20;;;;;;5107213;27;20691;-89
2022/07/29 11:51:28;;;;;;;6.83;3.10;;;33.50;29.20;;;;;;5097618;27;20440;-88
2022/07/29 11:53:56;;;;;;;3.53;2.63;;;33.80;28.40;;;;;;5110221;27;20517;-89
2022/07/29 12:00:32;;;;;;;4.80;3.17;;;33.90;27.90;;;;;;5125058;27;20499;-88
2022/07/29 12:03:01;;;;;;;3.00;2.80;;;33.50;28.30;;;;;;5085961;27;20797;-88
2022/07/29 12:05:42;;;;;;;4.53;3.20;;;33.50;28.60;;;;;;5122616;27;20467;-87
2022/07/29 12:09:00;;;;;;;3.37;3.07;;;33.50;28.90;;;;;;5114339;27;20828;-90
2022/07/29 12:11:59;;;;;;;4.00;3.70;;;33.50;29.20;;;;;;5135607;27;20471;-88
2022/07/29 12:14:27;;;;;;;3.47;3.17;;;32.70;30.10;;;;;;5092994;27;20472;-87
2022/07/29 12:16:54;;;;;;;3.90;2.80;;;32.90;29.90;;;;;;5087864;27;20476;-87
2022/07/29 12:19:22;;;;;;;2.97;2.77;;;33.00;30.00;;;;;;5117361;27;20484;-87
2022/07/29 12:21:51;;;;;;;3.23;3.03;;;32.90;29.60;;;;;;5100426;27;20453;-88
2022/07/29 12:24:19;;;;;;;3.00;2.43;;;32.70;30.10;;;;;;5086475;27;20557;-88
2022/07/29 12:26:54;;;;;;;3.93;3.20;;;32.80;30.10;;;;;;5140474;27;21172;-90
2022/07/29 12:29:22;;;;;;;3.23;2.90;;;32.80;30.30;;;;;;5116443;27;21034;-88
2022/07/29 12:31:54;;;;;;;2.90;2.70;;;32.80;30.10;;;;;;5118761;27;20452;-88
2022/07/29 12:34:24;;;;;;;3.57;3.33;;;32.60;30.00;;;;;;5102325;27;20592;-88
2022/07/29 12:36:51;;;;;;;3.70;3.37;;;32.60;30.70;;;;;;5096100;27;20517;-87
2022/07/29 12:39:19;;;;;;;3.30;3.00;;;32.40;30.50;;;;;;5135848;27;20473;-89
2022/07/29 12:41:46;;;;;;;3.60;3.30;;;32.40;31.10;;;;;;5134510;27;20923;-88
2022/07/29 12:47:31;;;;;;;3.90;3.10;;;32.40;31.20;;;;;;5118163;27;20421;-90
2022/07/29 12:50:17;;;;;;;3.83;3.50;;;32.40;31.50;;;;;;5117045;27;20532;-88
2022/07/29 12:52:45;;;;;;;3.57;3.20;;;32.40;34.50;;;;;;5140637;27;20506;-90
2022/07/29 12:55:12;;;;;;;4.30;3.50;;;32.40;36.90;;;;;;5102520;27;20449;-87
2022/07/29 12:57:47;;;;;;;3.20;3.00;;;32.20;39.20;;;;;;5101279;27;20501;-88
2022/07/29 13:18:33;;;;;;;4.20;3.77;;;31.50;44.20;;;;;;5146354;27;20440;-89
2022/07/29 13:21:12;;;;;;;4.23;3.80;;;30.90;43.80;;;;;;5092157;27;20492;-89
2022/07/29 13:23:40;;;;;;;5.00;4.40;;;30.50;44.20;;;;;;5125769;27;20449;-89
2022/07/29 13:26:07;;;;;;;5.57;3.97;;;30.60;45.70;;;;;;5145367;27;20464;-90
2022/07/29 13:28:34;;;;;;;4.67;4.27;;;30.20;46.60;;;;;;5111794;27;20440;-89
2022/07/29 13:31:02;;;;;;;7.67;4.57;;;29.90;47.20;;;;;;5109963;27;20444;-89
2022/07/29 13:33:29;;;;;;;3.83;3.60;;;29.70;47.00;;;;;;5111641;27;20506;-90
2022/07/29 13:35:56;;;;;;;7.10;4.20;;;29.30;48.50;;;;;;5112891;27;20453;-90
2022/07/29 13:38:25;;;;;;;5.33;3.90;;;29.30;47.70;;;;;;5132965;27;20447;-89
2022/07/29 13:40:52;;;;;;;4.33;3.93;;;29.20;48.00;;;;;;5107192;27;20469;-89
2022/07/29 13:43:19;;;;;;;4.80;4.40;;;29.20;48.90;;;;;;5113981;27;20482;-90
2022/07/29 13:45:46;;;;;;;5.10;3.90;;;29.20;49.60;;;;;;5132981;27;20447;-89
2022/07/29 13:48:13;;;;;;;5.37;3.83;;;29.40;50.40;;;;;;5118215;27;20790;-89
2022/07/29 13:50:39;;;;;;;4.77;3.93;;;29.60;49.60;;;;;;5094753;27;20942;-90
2022/07/29 13:53:06;;;;;;;5.70;4.20;;;29.60;48.50;;;;;;5132383;27;20432;-89
2022/07/29 13:58:52;;;;;;;8.03;4.40;;;29.80;47.50;;;;;;5103557;27;20448;-89
2022/07/29 14:01:19;;;;;;;6.00;4.30;;;29.90;47.10;;;;;;5124554;27;20468;-90
2022/07/29 14:03:46;;;;;;;5.90;4.37;;;29.90;47.50;;;;;;5131434;27;20464;-93
2022/07/29 14:06:13;;;;;;;6.43;4.80;;;29.80;49.50;;;;;;5112003;27;20536;-89
2022/07/29 14:16:31;;;;;;;5.13;4.63;;;28.80;52.30;;;;;;5090716;27;20475;-91
2022/07/29 14:18:58;;;;;;;5.53;4.97;;;28.80;51.90;;;;;;5128399;27;20476;-89
2022/07/29 14:21:25;;;;;;;5.10;4.60;;;28.30;53.10;;;;;;5112282;27;20568;-88
2022/07/29 14:23:54;;;;;;;6.30;4.33;;;28.20;54.10;;;;;;5144834;27;20500;-89
2022/07/29 14:26:21;;;;;;;6.10;5.50;;;28.30;53.80;;;;;;5145100;27;20449;-89
2022/07/29 14:28:48;;;;;;;5.00;4.20;;;28.30;53.10;;;;;;5094175;27;20449;-90
2022/07/29 14:31:15;;;;;;;5.10;4.53;;;28.40;53.30;;;;;;5110763;27;20524;-87
2022/07/29 14:33:44;;;;;;;5.90;5.33;;;28.40;53.10;;;;;;5138622;27;20472;-87
2022/07/29 14:47:41;;;;;;;6.17;5.57;;;27.10;57.90;;;;;;5137317;27;20421;-88
2022/07/29 14:50:11;;;;;;;6.13;5.40;;;27.30;57.70;;;;;;5113667;27;20961;-88
2022/07/29 14:52:38;;;;;;;5.37;4.87;;;27.30;57.50;;;;;;5146936;27;20495;-90
2022/07/29 14:55:05;;;;;;;4.73;4.30;;;27.40;56.20;;;;;;5105714;27;21004;-89
2022/07/29 15:00:49;;;;;;;5.73;4.67;;;27.50;53.00;;;;;;5128059;27;20947;-88
2022/07/29 15:03:16;;;;;;;4.80;4.40;;;27.50;53.90;;;;;;5127002;27;21055;-88
2022/07/29 15:05:44;;;;;;;5.40;4.90;;;27.50;52.40;;;;;;5108545;27;20456;-89
2022/07/29 15:08:11;;;;;;;4.13;3.80;;;27.30;52.00;;;;;;5128832;27;20473;-88
2022/07/29 15:10:38;;;;;;;5.57;4.77;;;27.30;52.40;;;;;;5127557;27;20449;-88
2022/07/29 15:13:05;;;;;;;5.00;4.60;;;27.50;52.90;;;;;;5096186;27;20453;-89
2022/07/29 15:15:32;;;;;;;4.53;4.00;;;27.40;50.90;;;;;;5085752;27;21250;-88
2022/07/29 15:17:59;;;;;;;5.50;4.90;;;27.50;53.10;;;;;;5151602;27;20449;-88
2022/07/29 15:20:26;;;;;;;5.87;4.93;;;27.60;53.80;;;;;;5145402;27;20460;-90
2022/07/29 15:22:55;;;;;;;4.40;4.00;;;27.60;53.70;;;;;;5118060;27;20453;-88
2022/07/29 15:25:24;;;;;;;5.87;5.37;;;27.50;53.70;;;;;;5123280;27;20827;-87
2022/07/29 15:27:51;;;;;;;6.23;5.63;;;27.40;54.80;;;;;;5109557;27;20581;-88
2022/07/29 15:30:18;;;;;;;4.93;4.53;;;27.30;53.80;;;;;;5140097;27;20464;-88
2022/07/29 15:32:45;;;;;;;7.10;5.50;;;27.40;54.00;;;;;;5126587;27;20533;-85
2022/07/29 15:35:12;;;;;;;6.40;5.50;;;27.40;53.40;;;;;;5124756;27;20468;-86
2022/07/29 15:37:40;;;;;;;5.40;4.90;;;27.30;54.30;;;;;;5141662;27;20453;-87
2022/07/29 15:40:10;;;;;;;5.10;4.70;;;27.30;53.30;;;;;;5124510;27;20469;-86
2022/07/29 15:42:37;;;;;;;6.73;5.50;;;27.30;53.20;;;;;;5123166;27;20448;-86
2022/07/29 15:45:05;;;;;;;4.77;4.37;;;27.10;54.40;;;;;;5123808;27;20534;-86
2022/07/29 15:47:32;;;;;;;6.10;5.50;;;27.00;54.20;;;;;;5140952;27;20494;-85
2022/07/29 15:49:59;;;;;;;5.57;5.07;;;27.00;55.00;;;;;;5123340;27;20452;-87
2022/07/29 15:52:26;;;;;;;4.73;4.40;;;27.00;54.60;;;;;;5143627;27;20445;-87
2022/07/29 15:54:53;;;;;;;6.27;5.67;;;26.90;55.00;;;;;;5102088;27;20472;-85
2022/07/29 16:01:31;;;;;;;6.70;4.73;;;26.50;54.50;;;;;;5112462;27;21025;-85